Time;durP1;ratioP1;P1;durP2;ratioP2;P2;SDS_P1;SDS_P2;PMS_P1;PMS_P2;Temp;Humidity;BMP_temperature;BMP_pressure;BME280_temperature;BME280_humidity;BME280_pressure;Samples;Min_cycle;Max_cycle;Signal;HPM_P1;HPM_P2
2023/09/12 00:00:58;;;;;;;6.80;5.18;;;;;;;;;;5103754;28;20027;-55
2023/09/12 00:03:25;;;;;;;5.05;4.40;;;;;;;;;;5100362;28;20105;-58
2023/09/12 00:05:57;;;;;;;6.78;4.30;;;;;;;;;;5104700;28;20323;-60
2023/09/12 00:08:23;;;;;;;4.93;4.40;;;;;;;;;;5103822;28;20031;-56
2023/09/12 00:11:11;;;;;;;5.78;4.28;;;;;;;;;;5104427;28;20093;-52
2023/09/12 00:13:38;;;;;;;4.40;4.00;;;;;;;;;;5098090;28;20037;-57
2023/09/12 00:16:13;;;;;;;5.00;4.13;;;;;;;;;;5098359;28;20139;-58
2023/09/12 00:18:41;;;;;;;6.65;4.40;;;;;;;;;;5102466;28;20085;-53
2023/09/12 00:21:08;;;;;;;4.65;4.00;;;;;;;;;;5104059;28;20064;-54
2023/09/12 00:23:34;;;;;;;4.43;3.85;;;;;;;;;;5104151;28;20417;-56
2023/09/12 00:26:01;;;;;;;4.28;3.88;;;;;;;;;;5099831;28;20036;-52
2023/09/12 00:28:28;;;;;;;5.90;4.22;;;;;;;;;;5094917;28;20091;-53
2023/09/12 00:30:54;;;;;;;5.85;4.38;;;;;;;;;;5097040;28;20028;-54
2023/09/12 00:33:21;;;;;;;4.20;3.75;;;;;;;;;;5095564;28;20044;-55
2023/09/12 00:35:48;;;;;;;7.85;4.78;;;;;;;;;;5083636;28;20037;-55
2023/09/12 00:38:14;;;;;;;5.13;4.13;;;;;;;;;;5083669;28;20375;-59
2023/09/12 00:40:41;;;;;;;4.68;4.28;;;;;;;;;;5101134;28;20043;-54
2023/09/12 00:43:08;;;;;;;5.28;4.10;;;;;;;;;;5094108;28;20091;-53
2023/09/12 00:45:34;;;;;;;6.75;4.38;;;;;;;;;;5093990;28;20267;-54
2023/09/12 00:48:02;;;;;;;5.53;4.78;;;;;;;;;;5091873;28;20032;-53
2023/09/12 00:50:30;;;;;;;5.53;4.97;;;;;;;;;;5097706;28;20350;-54
2023/09/12 00:52:56;;;;;;;5.43;4.90;;;;;;;;;;5089199;28;20052;-56
2023/09/12 00:55:23;;;;;;;6.07;5.13;;;;;;;;;;5084732;28;20028;-57
2023/09/12 00:57:50;;;;;;;7.65;5.85;;;;;;;;;;5103613;28;20234;-56
2023/09/12 01:00:17;;;;;;;7.25;5.60;;;;;;;;;;5103975;28;20017;-55
2023/09/12 01:02:44;;;;;;;5.65;4.97;;;;;;;;;;5085998;28;20220;-57
2023/09/12 01:05:12;;;;;;;5.88;4.53;;;;;;;;;;5083541;28;20260;-57
2023/09/12 01:07:39;;;;;;;7.07;4.80;;;;;;;;;;5083162;28;20017;-57
2023/09/12 01:10:08;;;;;;;6.35;4.53;;;;;;;;;;5101483;28;20211;-55
2023/09/12 01:12:35;;;;;;;4.93;4.43;;;;;;;;;;5097063;28;20032;-60
2023/09/12 01:15:05;;;;;;;5.30;4.10;;;;;;;;;;5083494;28;20021;-55
2023/09/12 01:17:33;;;;;;;6.63;4.50;;;;;;;;;;5083377;28;20036;-59
2023/09/12 01:20:01;;;;;;;7.13;4.50;;;;;;;;;;5092969;28;20028;-52
2023/09/12 01:22:48;;;;;;;6.03;4.40;;;;;;;;;;5098866;28;20019;-55
2023/09/12 01:25:26;;;;;;;5.40;4.28;;;;;;;;;;5058070;28;20036;-59
2023/09/12 01:27:55;;;;;;;5.32;4.10;;;;;;;;;;5095639;28;20035;-55
2023/09/12 01:30:23;;;;;;;6.75;3.80;;;;;;;;;;5099327;28;20031;-59
2023/09/12 01:32:50;;;;;;;6.18;4.30;;;;;;;;;;5093828;28;20051;-52
2023/09/12 01:35:17;;;;;;;5.15;3.72;;;;;;;;;;5106918;28;20093;-55
2023/09/12 01:37:44;;;;;;;5.90;3.90;;;;;;;;;;5102127;28;20058;-52
2023/09/12 01:40:11;;;;;;;4.95;4.30;;;;;;;;;;5097821;28;21224;-56
2023/09/12 01:42:39;;;;;;;4.93;4.00;;;;;;;;;;5101887;28;20020;-51
2023/09/12 01:45:06;;;;;;;9.30;4.32;;;;;;;;;;5104142;28;20040;-52
2023/09/12 01:47:34;;;;;;;7.45;4.10;;;;;;;;;;5094056;28;20605;-48
2023/09/12 01:50:02;;;;;;;5.03;4.18;;;;;;;;;;5101734;28;20069;-46
2023/09/12 01:52:29;;;;;;;6.38;4.00;;;;;;;;;;5099759;28;20216;-48
2023/09/12 01:54:56;;;;;;;7.63;4.35;;;;;;;;;;5094487;28;20085;-50
2023/09/12 01:57:23;;;;;;;5.72;4.60;;;;;;;;;;5100810;28;20024;-53
2023/09/12 01:59:50;;;;;;;6.30;4.47;;;;;;;;;;5106511;28;20024;-50
2023/09/12 02:02:17;;;;;;;5.88;4.03;;;;;;;;;;5101878;28;20354;-51
2023/09/12 02:05:09;;;;;;;4.80;4.00;;;;;;;;;;5098115;28;21375;-51
2023/09/12 02:07:36;;;;;;;5.50;4.28;;;;;;;;;;5094551;28;20036;-54
2023/09/12 02:10:04;;;;;;;7.95;4.05;;;;;;;;;;5105313;28;20203;-55
2023/09/12 02:12:33;;;;;;;4.97;3.72;;;;;;;;;;5095613;28;20046;-49
2023/09/12 02:14:59;;;;;;;4.88;4.07;;;;;;;;;;5098512;28;20046;-55
2023/09/12 02:17:26;;;;;;;5.95;4.28;;;;;;;;;;5088357;28;20033;-49
2023/09/12 02:19:53;;;;;;;6.03;4.30;;;;;;;;;;5098701;28;20031;-52
2023/09/12 02:22:19;;;;;;;6.80;4.00;;;;;;;;;;5096976;28;20016;-52
2023/09/12 02:24:46;;;;;;;4.45;4.03;;;;;;;;;;5100151;28;20215;-58
2023/09/12 02:27:12;;;;;;;6.18;4.25;;;;;;;;;;5106228;28;20020;-53
2023/09/12 02:29:40;;;;;;;8.60;4.85;;;;;;;;;;5104241;28;20032;-54
2023/09/12 02:32:06;;;;;;;6.30;4.28;;;;;;;;;;5094942;28;20043;-52
2023/09/12 02:34:34;;;;;;;7.35;4.55;;;;;;;;;;5086713;28;20040;-51
2023/09/12 02:37:01;;;;;;;7.43;4.15;;;;;;;;;;5106204;28;20023;-52
2023/09/12 02:39:28;;;;;;;28.80;5.25;;;;;;;;;;5105943;28;20024;-52
2023/09/12 02:41:54;;;;;;;14.48;5.97;;;;;;;;;;5105548;28;20019;-57
2023/09/12 02:44:21;;;;;;;9.65;5.60;;;;;;;;;;5105833;28;20039;-55
2023/09/12 02:46:48;;;;;;;12.68;4.82;;;;;;;;;;5105115;28;20079;-54
2023/09/12 02:49:15;;;;;;;10.65;4.82;;;;;;;;;;5096814;28;20024;-59
2023/09/12 02:51:42;;;;;;;9.85;4.43;;;;;;;;;;5084875;28;20252;-54
2023/09/12 02:54:09;;;;;;;9.35;4.38;;;;;;;;;;5096472;28;20029;-52
2023/09/12 02:56:35;;;;;;;7.13;4.38;;;;;;;;;;5092971;28;20038;-51
2023/09/12 02:59:02;;;;;;;6.80;4.15;;;;;;;;;;5098260;28;20216;-57
2023/09/12 03:01:28;;;;;;;6.85;4.53;;;;;;;;;;5085796;28;20357;-56
2023/09/12 03:03:56;;;;;;;8.68;4.30;;;;;;;;;;5100144;28;20012;-54
2023/09/12 03:06:23;;;;;;;6.97;4.25;;;;;;;;;;5104032;28;20054;-53
2023/09/12 03:08:50;;;;;;;5.40;3.67;;;;;;;;;;5105500;28;20036;-57
2023/09/12 03:11:17;;;;;;;4.38;3.97;;;;;;;;;;5105908;28;20031;-58
2023/09/12 03:13:44;;;;;;;4.75;3.83;;;;;;;;;;5104949;28;20395;-53
2023/09/12 03:16:14;;;;;;;5.70;4.22;;;;;;;;;;5104424;28;20105;-52
2023/09/12 03:18:41;;;;;;;6.43;4.32;;;;;;;;;;5105320;28;20356;-52
2023/09/12 03:21:07;;;;;;;5.90;4.47;;;;;;;;;;5103061;28;20032;-55
2023/09/12 03:23:34;;;;;;;4.38;3.78;;;;;;;;;;5101402;28;20020;-55
2023/09/12 03:26:04;;;;;;;5.20;3.83;;;;;;;;;;5095943;28;20039;-56
2023/09/12 03:28:33;;;;;;;4.85;3.70;;;;;;;;;;5084822;28;20036;-51
2023/09/12 03:31:11;;;;;;;4.18;3.78;;;;;;;;;;5085246;28;20092;-53
2023/09/12 03:33:38;;;;;;;6.32;3.85;;;;;;;;;;5084470;28;20050;-56
2023/09/12 03:36:06;;;;;;;7.72;3.90;;;;;;;;;;5084955;28;20095;-54
2023/09/12 03:38:33;;;;;;;7.05;3.42;;;;;;;;;;5084686;28;20081;-54
2023/09/12 03:41:00;;;;;;;4.65;4.18;;;;;;;;;;5084822;28;20028;-53
2023/09/12 03:43:26;;;;;;;4.88;3.83;;;;;;;;;;5084609;28;20047;-56
2023/09/12 03:45:53;;;;;;;6.03;4.90;;;;;;;;;;5084051;28;20082;-55
2023/09/12 03:48:20;;;;;;;9.25;4.75;;;;;;;;;;5084327;28;20032;-53
2023/09/12 03:50:46;;;;;;;6.72;4.82;;;;;;;;;;5084874;28;20086;-54
2023/09/12 03:53:14;;;;;;;8.70;4.20;;;;;;;;;;5084444;28;20016;-54
2023/09/12 03:55:41;;;;;;;6.65;4.00;;;;;;;;;;5084379;28;20036;-58
2023/09/12 03:58:08;;;;;;;8.38;3.60;;;;;;;;;;5084370;28;20028;-57
2023/09/12 04:00:34;;;;;;;6.43;3.85;;;;;;;;;;5086684;28;20025;-54
2023/09/12 04:03:01;;;;;;;6.35;3.97;;;;;;;;;;5104408;28;20042;-54
2023/09/12 04:05:28;;;;;;;4.57;3.70;;;;;;;;;;5104768;28;20137;-54
2023/09/12 04:07:54;;;;;;;6.45;3.78;;;;;;;;;;5104553;28;20023;-55
2023/09/12 04:10:21;;;;;;;5.45;3.88;;;;;;;;;;5104082;28;20031;-56
2023/09/12 04:12:48;;;;;;;6.40;3.88;;;;;;;;;;5104326;28;20042;-56
2023/09/12 04:15:15;;;;;;;5.82;3.90;;;;;;;;;;5104002;28;20261;-54
2023/09/12 04:17:41;;;;;;;6.57;3.78;;;;;;;;;;5104233;28;20020;-55
2023/09/12 04:20:08;;;;;;;6.93;4.00;;;;;;;;;;5104489;28;20085;-56
2023/09/12 04:22:35;;;;;;;5.28;3.85;;;;;;;;;;5104352;28;20016;-53
2023/09/12 04:25:01;;;;;;;8.73;4.25;;;;;;;;;;5104166;28;20207;-51
2023/09/12 04:27:28;;;;;;;9.00;3.95;;;;;;;;;;5104071;28;20192;-53
2023/09/12 04:29:55;;;;;;;8.90;4.25;;;;;;;;;;5104312;28;20024;-53
2023/09/12 04:32:23;;;;;;;8.82;3.63;;;;;;;;;;5104094;28;20093;-52
2023/09/12 04:34:52;;;;;;;5.78;3.95;;;;;;;;;;5104213;28;20064;-60
2023/09/12 04:37:19;;;;;;;5.28;3.50;;;;;;;;;;5104072;28;20364;-55
2023/09/12 04:39:46;;;;;;;6.15;3.60;;;;;;;;;;5104029;28;20039;-54
2023/09/12 04:42:12;;;;;;;6.53;3.60;;;;;;;;;;5103870;28;20099;-53
2023/09/12 04:44:40;;;;;;;7.78;3.78;;;;;;;;;;5104068;28;20065;-54
2023/09/12 04:47:07;;;;;;;7.97;3.70;;;;;;;;;;5103818;28;20063;-55
2023/09/12 04:49:34;;;;;;;7.75;4.13;;;;;;;;;;5104039;28;20119;-55
2023/09/12 04:52:01;;;;;;;6.10;3.75;;;;;;;;;;5104041;28;20080;-52
2023/09/12 04:54:27;;;;;;;6.72;3.95;;;;;;;;;;5103906;28;20315;-54
2023/09/12 04:56:54;;;;;;;11.23;3.70;;;;;;;;;;5092667;28;20040;-55
2023/09/12 04:59:21;;;;;;;6.25;3.40;;;;;;;;;;5087772;28;20235;-54
2023/09/12 05:01:48;;;;;;;7.30;3.60;;;;;;;;;;5087681;28;20031;-51
2023/09/12 05:04:14;;;;;;;4.55;3.22;;;;;;;;;;5087360;28;20088;-53
2023/09/12 05:06:41;;;;;;;5.00;3.15;;;;;;;;;;5087694;28;20231;-54
2023/09/12 05:09:09;;;;;;;5.75;3.38;;;;;;;;;;5087762;28;20042;-52
2023/09/12 05:11:35;;;;;;;7.55;3.22;;;;;;;;;;5087798;28;20312;-54
2023/09/12 05:14:05;;;;;;;5.97;3.20;;;;;;;;;;5087363;28;20216;-59
2023/09/12 05:16:32;;;;;;;5.22;3.40;;;;;;;;;;5087822;28;20190;-54
2023/09/12 05:18:58;;;;;;;4.65;3.42;;;;;;;;;;5086840;28;20036;-54
2023/09/12 05:21:25;;;;;;;6.45;3.35;;;;;;;;;;5087752;28;20021;-56
2023/09/12 05:23:52;;;;;;;7.85;3.20;;;;;;;;;;5087264;28;20139;-55
2023/09/12 05:26:18;;;;;;;11.93;3.22;;;;;;;;;;5087480;28;20343;-55
2023/09/12 05:28:45;;;;;;;3.85;3.30;;;;;;;;;;5087262;28;20023;-55
2023/09/12 05:31:12;;;;;;;4.80;3.08;;;;;;;;;;5087074;28;20043;-53
2023/09/12 05:33:38;;;;;;;6.32;3.08;;;;;;;;;;5086842;28;20135;-54
2023/09/12 05:36:05;;;;;;;5.07;3.00;;;;;;;;;;5087171;28;20028;-52
2023/09/12 05:38:31;;;;;;;5.50;3.10;;;;;;;;;;5092865;28;20046;-57
2023/09/12 05:40:58;;;;;;;9.80;3.50;;;;;;;;;;5096550;28;20040;-57
2023/09/12 05:43:25;;;;;;;7.82;3.25;;;;;;;;;;5086999;28;20017;-57
2023/09/12 05:45:51;;;;;;;6.00;3.20;;;;;;;;;;5087054;28;20045;-56
2023/09/12 05:48:18;;;;;;;4.95;3.10;;;;;;;;;;5086575;28;20039;-55
2023/09/12 05:50:45;;;;;;;4.53;3.40;;;;;;;;;;5087090;28;20024;-55
2023/09/12 05:53:11;;;;;;;7.88;3.25;;;;;;;;;;5086733;28;20036;-53
2023/09/12 05:55:38;;;;;;;4.40;2.90;;;;;;;;;;5086736;28;20036;-55
2023/09/12 05:58:05;;;;;;;5.63;3.38;;;;;;;;;;5086492;28;20106;-56
2023/09/12 06:00:32;;;;;;;7.85;3.47;;;;;;;;;;5086848;28;20359;-55
2023/09/12 06:02:59;;;;;;;7.63;3.67;;;;;;;;;;5086387;28;20033;-58
2023/09/12 06:05:26;;;;;;;6.05;3.53;;;;;;;;;;5086725;28;20070;-55
2023/09/12 06:07:52;;;;;;;5.72;3.40;;;;;;;;;;5086025;28;20339;-56
2023/09/12 06:10:19;;;;;;;5.13;3.22;;;;;;;;;;5086473;28;20090;-56
2023/09/12 06:12:45;;;;;;;5.47;3.40;;;;;;;;;;5086507;28;20043;-58
2023/09/12 06:15:12;;;;;;;7.70;3.40;;;;;;;;;;5093707;28;20032;-58
2023/09/12 06:17:39;;;;;;;5.70;3.03;;;;;;;;;;5106519;28;20095;-55
2023/09/12 06:20:06;;;;;;;5.47;2.97;;;;;;;;;;5101235;28;20036;-57
2023/09/12 06:22:33;;;;;;;4.65;3.13;;;;;;;;;;5102610;28;20028;-57
2023/09/12 06:25:00;;;;;;;5.68;2.90;;;;;;;;;;5087018;28;20037;-58
2023/09/12 06:27:27;;;;;;;4.32;3.17;;;;;;;;;;5085913;28;20024;-55
2023/09/12 06:29:53;;;;;;;9.35;2.97;;;;;;;;;;5086204;28;20251;-57
2023/09/12 06:32:20;;;;;;;4.30;2.70;;;;;;;;;;5085857;28;20028;-55
2023/09/12 06:34:47;;;;;;;6.85;3.00;;;;;;;;;;5089483;28;20032;-55
2023/09/12 06:37:14;;;;;;;5.93;2.70;;;;;;;;;;5112232;28;20030;-57
2023/09/12 06:39:41;;;;;;;7.20;2.88;;;;;;;;;;5126460;28;20077;-57
2023/09/12 06:42:08;;;;;;;4.88;3.22;;;;;;;;;;5126254;28;20233;-57
2023/09/12 06:44:35;;;;;;;5.45;3.50;;;;;;;;;;5126320;28;20024;-53
2023/09/12 06:47:01;;;;;;;4.72;2.97;;;;;;;;;;5126169;28;20055;-57
2023/09/12 06:49:28;;;;;;;4.60;3.00;;;;;;;;;;5126123;28;20058;-55
2023/09/12 06:51:54;;;;;;;6.05;3.00;;;;;;;;;;5126192;28;20039;-57
2023/09/12 06:54:21;;;;;;;7.20;3.03;;;;;;;;;;5126253;28;20027;-54
2023/09/12 06:56:48;;;;;;;4.88;2.67;;;;;;;;;;5125998;28;20319;-55
2023/09/12 06:59:15;;;;;;;4.32;2.75;;;;;;;;;;5125970;28;20409;-57
2023/09/12 07:01:41;;;;;;;6.97;3.00;;;;;;;;;;5126131;28;20113;-56
2023/09/12 07:04:08;;;;;;;6.28;2.80;;;;;;;;;;5125898;28;20030;-55
2023/09/12 07:06:34;;;;;;;7.38;3.33;;;;;;;;;;5126466;28;20031;-56
2023/09/12 07:09:02;;;;;;;7.05;3.08;;;;;;;;;;5125984;28;20038;-57
2023/09/12 07:11:29;;;;;;;5.13;2.75;;;;;;;;;;5126163;28;20027;-57
2023/09/12 07:13:56;;;;;;;5.47;3.05;;;;;;;;;;5125757;28;20064;-58
2023/09/12 07:16:22;;;;;;;6.82;3.15;;;;;;;;;;5125565;28;20051;-57
2023/09/12 07:18:50;;;;;;;5.53;3.00;;;;;;;;;;5125269;28;20016;-56
2023/09/12 07:21:17;;;;;;;4.53;2.80;;;;;;;;;;5120548;28;20260;-50
2023/09/12 07:23:43;;;;;;;5.10;2.78;;;;;;;;;;5093951;28;20040;-56
2023/09/12 07:26:14;;;;;;;3.92;2.50;;;;;;;;;;5092243;28;20039;-54
2023/09/12 07:28:41;;;;;;;3.70;2.42;;;;;;;;;;5100567;28;20335;-54
2023/09/12 07:31:08;;;;;;;3.22;2.45;;;;;;;;;;5100963;28;20044;-54
2023/09/12 07:33:34;;;;;;;3.70;2.30;;;;;;;;;;5085177;28;20066;-54
2023/09/12 07:36:02;;;;;;;5.95;2.63;;;;;;;;;;5084953;28;20037;-56
2023/09/12 07:38:30;;;;;;;5.53;2.50;;;;;;;;;;5084555;28;20042;-55
2023/09/12 07:40:58;;;;;;;2.75;2.40;;;;;;;;;;5084698;28;20048;-53
2023/09/12 07:43:24;;;;;;;3.80;2.53;;;;;;;;;;5084485;28;20320;-53
2023/09/12 07:45:55;;;;;;;4.07;2.25;;;;;;;;;;5084361;28;20059;-58
2023/09/12 07:48:22;;;;;;;3.70;2.20;;;;;;;;;;5084306;28;20079;-52
2023/09/12 07:50:49;;;;;;;2.83;2.47;;;;;;;;;;5084918;28;20120;-55
2023/09/12 07:53:15;;;;;;;4.63;3.05;;;;;;;;;;5084499;28;20051;-56
2023/09/12 07:55:46;;;;;;;3.47;2.22;;;;;;;;;;5084451;28;20035;-55
2023/09/12 07:58:13;;;;;;;7.85;2.95;;;;;;;;;;5084260;28;20016;-54
2023/09/12 08:00:40;;;;;;;4.90;2.80;;;;;;;;;;5084122;28;20071;-51
2023/09/12 08:03:07;;;;;;;5.45;2.78;;;;;;;;;;5084057;28;20013;-56
2023/09/12 08:05:33;;;;;;;3.95;2.92;;;;;;;;;;5084479;28;20063;-54
2023/09/12 08:08:00;;;;;;;5.40;2.70;;;;;;;;;;5084261;28;20047;-56
2023/09/12 08:10:27;;;;;;;2.78;2.25;;;;;;;;;;5084175;28;20031;-54
2023/09/12 08:12:54;;;;;;;6.80;2.92;;;;;;;;;;5084183;28;20344;-51
2023/09/12 08:15:21;;;;;;;7.78;2.85;;;;;;;;;;5084286;28;20043;-57
2023/09/12 08:17:51;;;;;;;4.47;2.58;;;;;;;;;;5083965;28;20013;-56
2023/09/12 08:20:19;;;;;;;5.72;2.65;;;;;;;;;;5084135;28;20315;-52
2023/09/12 08:22:45;;;;;;;3.83;2.40;;;;;;;;;;5084156;28;20038;-56
2023/09/12 08:25:14;;;;;;;3.83;2.28;;;;;;;;;;5084176;28;20028;-55
2023/09/12 08:27:42;;;;;;;5.18;2.60;;;;;;;;;;5083491;28;20028;-55
2023/09/12 08:30:09;;;;;;;5.47;2.55;;;;;;;;;;5083907;28;20036;-55
2023/09/12 08:32:35;;;;;;;4.30;2.40;;;;;;;;;;5083936;28;20208;-53
2023/09/12 08:35:03;;;;;;;3.30;2.17;;;;;;;;;;5083845;28;20047;-55
2023/09/12 08:37:30;;;;;;;3.83;2.45;;;;;;;;;;5083685;28;20025;-51
2023/09/12 08:39:59;;;;;;;4.82;2.15;;;;;;;;;;5083817;28;20047;-52
2023/09/12 08:42:29;;;;;;;5.13;2.08;;;;;;;;;;5083664;28;20378;-51
2023/09/12 08:44:56;;;;;;;3.33;1.92;;;;;;;;;;5086702;28;20041;-53
2023/09/12 08:47:24;;;;;;;5.57;2.28;;;;;;;;;;5093881;28;20118;-52
2023/09/12 08:49:50;;;;;;;3.42;2.10;;;;;;;;;;5094353;28;20081;-59
2023/09/12 08:52:17;;;;;;;5.45;2.30;;;;;;;;;;5094866;28;20035;-55
2023/09/12 08:54:43;;;;;;;5.03;2.30;;;;;;;;;;5093354;28;20292;-54
2023/09/12 08:57:11;;;;;;;4.95;2.38;;;;;;;;;;5083696;28;20091;-52
2023/09/12 08:59:38;;;;;;;5.70;2.50;;;;;;;;;;5083793;28;20033;-53
2023/09/12 09:02:08;;;;;;;3.67;2.42;;;;;;;;;;5083556;28;20013;-52
2023/09/12 09:04:35;;;;;;;5.75;2.08;;;;;;;;;;5083715;28;20032;-52
2023/09/12 09:07:04;;;;;;;6.93;2.58;;;;;;;;;;5083645;28;20366;-51
2023/09/12 09:09:32;;;;;;;4.57;2.08;;;;;;;;;;5083388;28;20025;-54
2023/09/12 09:11:58;;;;;;;2.40;2.03;;;;;;;;;;5083513;28;20032;-51
2023/09/12 09:14:25;;;;;;;2.92;2.00;;;;;;;;;;5083627;28;20052;-53
2023/09/12 09:16:52;;;;;;;5.90;2.53;;;;;;;;;;5083231;28;20024;-53
2023/09/12 09:19:19;;;;;;;6.80;2.50;;;;;;;;;;5083414;28;20086;-53
2023/09/12 09:21:46;;;;;;;5.15;2.20;;;;;;;;;;5083310;28;20047;-53
2023/09/12 09:24:17;;;;;;;4.32;2.55;;;;;;;;;;5083374;28;20012;-49
2023/09/12 09:26:46;;;;;;;4.88;2.17;;;;;;;;;;5083617;28;20209;-54
2023/09/12 09:29:17;;;;;;;5.05;2.22;;;;;;;;;;5082994;28;20033;-54
2023/09/12 09:31:44;;;;;;;3.85;2.30;;;;;;;;;;5083264;28;20056;-56
2023/09/12 09:34:21;;;;;;;5.28;2.50;;;;;;;;;;5083466;28;20033;-52
2023/09/12 09:36:49;;;;;;;7.47;2.45;;;;;;;;;;5082967;28;20075;-57
2023/09/12 09:39:17;;;;;;;4.72;2.40;;;;;;;;;;5083220;28;20036;-55
2023/09/12 09:41:48;;;;;;;4.35;2.40;;;;;;;;;;5083326;28;20024;-53
2023/09/12 09:44:15;;;;;;;7.32;3.00;;;;;;;;;;5086087;28;20024;-57
2023/09/12 09:46:45;;;;;;;5.30;2.78;;;;;;;;;;5086742;28;20111;-51
2023/09/12 09:49:12;;;;;;;4.78;2.47;;;;;;;;;;5086863;28;20047;-51
2023/09/12 09:51:45;;;;;;;5.38;2.50;;;;;;;;;;5095390;28;20043;-51
2023/09/12 09:54:14;;;;;;;4.57;2.63;;;;;;;;;;5106120;28;20047;-54
2023/09/12 09:56:48;;;;;;;7.65;3.63;;;;;;;;;;5106597;28;20028;-53
2023/09/12 09:59:16;;;;;;;7.35;3.78;;;;;;;;;;5106676;28;20312;-52
2023/09/12 10:01:44;;;;;;;5.53;3.10;;;;;;;;;;5106743;28;20024;-53
2023/09/12 10:04:10;;;;;;;5.65;2.63;;;;;;;;;;5106708;28;20051;-54
2023/09/12 10:06:39;;;;;;;3.97;2.70;;;;;;;;;;5107246;28;20267;-45
2023/09/12 10:09:15;;;;;;;5.10;2.55;;;;;;;;;;5100782;28;20272;-53
2023/09/12 10:11:43;;;;;;;7.22;4.47;;;;;;;;;;5089561;28;20036;-53
2023/09/12 10:14:10;;;;;;;10.18;4.82;;;;;;;;;;5097532;28;20087;-51
2023/09/12 10:16:40;;;;;;;6.88;4.20;;;;;;;;;;5106797;28;20102;-57
2023/09/12 10:19:26;;;;;;;5.50;3.80;;;;;;;;;;5106621;28;20020;-55
2023/09/12 10:22:19;;;;;;;7.20;3.28;;;;;;;;;;5104435;28;20141;-59
2023/09/12 10:24:46;;;;;;;5.15;3.28;;;;;;;;;;5102364;28;20089;-53
2023/09/12 10:27:13;;;;;;;4.25;3.85;;;;;;;;;;5105522;28;20047;-53
2023/09/12 10:29:40;;;;;;;7.35;5.03;;;;;;;;;;5104622;28;20048;-59
2023/09/12 10:32:07;;;;;;;10.55;4.60;;;;;;;;;;5095564;28;20024;-52
2023/09/12 10:34:35;;;;;;;12.45;4.50;;;;;;;;;;5103691;28;20047;-54
2023/09/12 10:37:04;;;;;;;6.15;3.53;;;;;;;;;;5101472;28;20106;-55
2023/09/12 10:39:33;;;;;;;14.85;4.95;;;;;;;;;;5099953;28;20040;-56
2023/09/12 10:42:00;;;;;;;9.20;3.80;;;;;;;;;;5096450;28;20027;-54
2023/09/12 10:44:26;;;;;;;13.55;4.75;;;;;;;;;;5095743;28;20078;-47
2023/09/12 10:46:54;;;;;;;10.02;4.72;;;;;;;;;;5094591;28;20084;-53
2023/09/12 10:49:21;;;;;;;14.02;5.07;;;;;;;;;;5095682;28;20125;-52
2023/09/12 10:51:48;;;;;;;26.50;9.45;;;;;;;;;;5102626;28;20036;-53
2023/09/12 10:54:25;;;;;;;14.10;6.15;;;;;;;;;;5104205;28;20061;-52
2023/09/12 10:57:04;;;;;;;15.07;4.97;;;;;;;;;;5105436;28;20027;-54
2023/09/12 10:59:35;;;;;;;11.85;5.00;;;;;;;;;;5104087;28;20028;-57
2023/09/12 11:02:20;;;;;;;9.45;4.57;;;;;;;;;;5104595;28;20047;-58
2023/09/12 11:04:46;;;;;;;10.32;4.28;;;;;;;;;;5104816;28;20300;-55
2023/09/12 11:07:32;;;;;;;15.35;4.47;;;;;;;;;;5104935;28;20034;-59
2023/09/12 11:10:15;;;;;;;12.38;4.70;;;;;;;;;;5105094;28;20035;-55
2023/09/12 11:12:42;;;;;;;10.43;3.65;;;;;;;;;;5105158;28;20047;-61
2023/09/12 11:15:13;;;;;;;10.45;4.20;;;;;;;;;;5106500;28;20099;-57
2023/09/12 11:17:40;;;;;;;9.88;4.05;;;;;;;;;;5106163;28;20304;-56
2023/09/12 11:20:10;;;;;;;11.52;4.28;;;;;;;;;;5106202;28;20031;-55
2023/09/12 11:22:47;;;;;;;7.20;3.78;;;;;;;;;;5104887;28;20055;-62
2023/09/12 11:25:23;;;;;;;9.55;3.78;;;;;;;;;;5103538;28;20028;-60
2023/09/12 11:27:53;;;;;;;19.20;4.30;;;;;;;;;;5103505;28;20032;-56
2023/09/12 11:30:20;;;;;;;13.40;3.40;;;;;;;;;;5103554;28;20193;-59
2023/09/12 11:32:47;;;;;;;9.95;3.38;;;;;;;;;;5103314;28;20028;-58
2023/09/12 11:35:15;;;;;;;12.70;3.95;;;;;;;;;;5103434;28;20024;-58
2023/09/12 11:37:49;;;;;;;7.82;3.13;;;;;;;;;;5103081;28;20050;-56
2023/09/12 11:40:16;;;;;;;9.27;3.85;;;;;;;;;;5105699;28;20032;-59
2023/09/12 11:42:43;;;;;;;9.85;2.63;;;;;;;;;;5105851;28;20027;-60
2023/09/12 11:45:10;;;;;;;9.10;3.03;;;;;;;;;;5105596;28;20047;-60
2023/09/12 11:47:43;;;;;;;7.28;2.67;;;;;;;;;;5105707;28;20087;-59
2023/09/12 11:50:26;;;;;;;7.60;2.90;;;;;;;;;;5105613;28;20103;-55
2023/09/12 11:53:03;;;;;;;5.72;2.75;;;;;;;;;;5105519;28;20032;-58
2023/09/12 11:55:33;;;;;;;6.25;2.70;;;;;;;;;;5105294;28;20103;-60
2023/09/12 11:58:00;;;;;;;4.25;2.78;;;;;;;;;;5105467;28;20083;-56
2023/09/12 12:00:28;;;;;;;3.55;2.70;;;;;;;;;;5105525;28;20037;-56
2023/09/12 12:02:55;;;;;;;6.95;2.50;;;;;;;;;;5105341;28;20304;-62
2023/09/12 12:05:22;;;;;;;4.03;2.67;;;;;;;;;;5105202;28;20229;-60
2023/09/12 12:07:49;;;;;;;5.78;2.97;;;;;;;;;;5105318;28;20038;-56
2023/09/12 12:10:16;;;;;;;5.85;2.92;;;;;;;;;;5105347;28;20036;-58
2023/09/12 12:12:46;;;;;;;5.47;2.72;;;;;;;;;;5105283;28;20047;-59
2023/09/12 12:15:13;;;;;;;5.85;3.10;;;;;;;;;;5105466;28;20020;-56
2023/09/12 12:17:42;;;;;;;8.40;3.58;;;;;;;;;;5105214;28;20019;-57
2023/09/12 12:20:10;;;;;;;4.63;3.05;;;;;;;;;;5105113;28;20030;-55
2023/09/12 12:22:41;;;;;;;4.93;2.97;;;;;;;;;;5105074;28;20024;-55
2023/09/12 12:25:11;;;;;;;8.20;3.53;;;;;;;;;;5105213;28;20168;-58
2023/09/12 12:27:38;;;;;;;4.28;3.08;;;;;;;;;;5105241;28;20218;-55
2023/09/12 12:30:06;;;;;;;6.32;3.38;;;;;;;;;;5105027;28;20024;-56
2023/09/12 12:32:33;;;;;;;6.60;2.95;;;;;;;;;;5105017;28;20054;-54
2023/09/12 12:35:02;;;;;;;7.90;2.75;;;;;;;;;;5105184;28;20052;-55
2023/09/12 12:37:32;;;;;;;4.25;2.63;;;;;;;;;;5104959;28;20023;-54
2023/09/12 12:40:00;;;;;;;3.17;2.38;;;;;;;;;;5104966;28;20024;-54
2023/09/12 12:42:33;;;;;;;4.35;2.42;;;;;;;;;;5104914;28;20302;-60
2023/09/12 12:45:00;;;;;;;5.90;2.80;;;;;;;;;;5104384;28;20024;-61
2023/09/12 12:47:27;;;;;;;3.70;2.35;;;;;;;;;;5105058;28;20177;-53
2023/09/12 12:49:54;;;;;;;3.78;2.70;;;;;;;;;;5104823;28;20026;-56
2023/09/12 12:52:25;;;;;;;4.40;2.55;;;;;;;;;;5104392;28;20057;-60
2023/09/12 12:54:54;;;;;;;3.95;2.30;;;;;;;;;;5104883;28;20296;-57
2023/09/12 12:57:21;;;;;;;5.63;2.53;;;;;;;;;;5104714;28;20016;-61
2023/09/12 12:59:50;;;;;;;4.20;2.13;;;;;;;;;;5104914;28;20028;-64
2023/09/12 13:02:19;;;;;;;3.80;2.40;;;;;;;;;;5104889;28;20071;-64
2023/09/12 13:04:45;;;;;;;2.75;2.15;;;;;;;;;;5104710;28;20026;-64
2023/09/12 13:07:12;;;;;;;5.60;2.28;;;;;;;;;;5104240;28;20051;-64
2023/09/12 13:09:39;;;;;;;3.92;2.28;;;;;;;;;;5104834;28;20253;-64
2023/09/12 13:12:07;;;;;;;3.58;2.22;;;;;;;;;;5104886;28;20071;-63
2023/09/12 13:14:33;;;;;;;4.70;2.33;;;;;;;;;;5104373;28;20051;-64
2023/09/12 13:17:00;;;;;;;5.80;2.10;;;;;;;;;;5104493;28;20088;-63
2023/09/12 13:19:27;;;;;;;2.80;2.20;;;;;;;;;;5108420;28;20065;-63
2023/09/12 13:21:54;;;;;;;2.42;2.08;;;;;;;;;;5108391;28;20020;-63
2023/09/12 13:24:20;;;;;;;2.83;2.13;;;;;;;;;;5108477;28;20022;-65
2023/09/12 13:26:47;;;;;;;3.83;2.13;;;;;;;;;;5108645;28;20024;-63
2023/09/12 13:29:14;;;;;;;3.85;1.95;;;;;;;;;;5108193;28;20024;-55
2023/09/12 13:31:41;;;;;;;3.28;2.00;;;;;;;;;;5107989;28;20338;-60
2023/09/12 13:34:07;;;;;;;4.05;2.50;;;;;;;;;;5108362;28;20307;-60
2023/09/12 13:36:34;;;;;;;5.05;2.78;;;;;;;;;;5108394;28;20081;-62
2023/09/12 13:39:02;;;;;;;3.67;1.90;;;;;;;;;;5108410;28;20020;-60
2023/09/12 13:41:29;;;;;;;4.03;2.50;;;;;;;;;;5108722;28;20016;-61
2023/09/12 13:43:55;;;;;;;6.55;2.55;;;;;;;;;;5107897;28;20223;-61
2023/09/12 13:46:22;;;;;;;3.50;2.22;;;;;;;;;;5107988;28;20320;-56
2023/09/12 13:48:49;;;;;;;3.22;2.13;;;;;;;;;;5108164;28;20035;-56
2023/09/12 13:51:15;;;;;;;3.70;2.30;;;;;;;;;;5107672;28;20355;-60
2023/09/12 13:53:42;;;;;;;5.75;2.28;;;;;;;;;;5107383;28;20023;-59
2023/09/12 13:56:09;;;;;;;4.82;2.47;;;;;;;;;;5107818;28;20099;-57
2023/09/12 13:58:35;;;;;;;6.78;2.67;;;;;;;;;;5107566;28;20028;-59
2023/09/12 14:01:03;;;;;;;4.90;2.63;;;;;;;;;;5107838;28;20040;-59
2023/09/12 14:03:30;;;;;;;2.50;2.30;;;;;;;;;;5107947;28;20016;-57
2023/09/12 14:05:56;;;;;;;5.53;2.55;;;;;;;;;;5108021;28;20097;-60
2023/09/12 14:08:23;;;;;;;4.28;2.58;;;;;;;;;;5107589;28;20016;-59
2023/09/12 14:10:50;;;;;;;3.17;2.38;;;;;;;;;;5107735;28;20126;-60
2023/09/12 14:13:17;;;;;;;5.68;2.33;;;;;;;;;;5106864;28;20031;-57
2023/09/12 14:15:46;;;;;;;3.65;2.20;;;;;;;;;;5106994;28;20078;-59
2023/09/12 14:18:13;;;;;;;2.30;2.10;;;;;;;;;;5107142;28;20056;-59
2023/09/12 14:20:39;;;;;;;4.35;2.20;;;;;;;;;;5107273;28;20145;-59
2023/09/12 14:23:06;;;;;;;2.83;2.17;;;;;;;;;;5107100;28;20184;-60
2023/09/12 14:25:33;;;;;;;3.60;2.33;;;;;;;;;;5107446;28;20267;-57
2023/09/12 14:27:59;;;;;;;3.67;2.53;;;;;;;;;;5107174;28;20344;-58
2023/09/12 14:30:33;;;;;;;4.82;2.40;;;;;;;;;;5107151;28;20048;-58
2023/09/12 14:33:00;;;;;;;4.43;2.50;;;;;;;;;;5106934;28;20024;-55
2023/09/12 14:35:27;;;;;;;5.43;2.50;;;;;;;;;;5106901;28;20032;-56
2023/09/12 14:37:53;;;;;;;3.95;2.20;;;;;;;;;;5106634;28;20062;-57
2023/09/12 14:40:20;;;;;;;4.05;2.30;;;;;;;;;;5106566;28;20024;-58
2023/09/12 14:42:47;;;;;;;4.57;2.42;;;;;;;;;;5106648;28;20028;-58
2023/09/12 14:45:14;;;;;;;2.45;2.08;;;;;;;;;;5106426;28;20031;-59
2023/09/12 14:47:41;;;;;;;3.63;2.25;;;;;;;;;;5106798;28;20082;-59